Time;durP1;ratioP1;P1;durP2;ratioP2;P2;SDS_P1;SDS_P2;PMS_P1;PMS_P2;Temp;Humidity;BMP_temperature;BMP_pressure;BME280_temperature;BME280_humidity;BME280_pressure;Samples;Min_cycle;Max_cycle;Signal;HPM_P1;HPM_P2
2022/03/28 10:13:09;;;;;;;53.40;24.83;;;13.90;94.50;;;;;;5106192;27;20392;-71
2022/03/28 10:15:35;;;;;;;45.83;24.13;;;13.90;95.40;;;;;;5106460;27;20319;-70
2022/03/28 10:18:01;;;;;;;47.13;23.50;;;14.00;93.90;;;;;;5088174;28;20058;-71
2022/03/28 10:20:27;;;;;;;41.75;23.05;;;14.00;94.10;;;;;;5106875;28;20107;-70
2022/03/28 10:22:56;;;;;;;48.15;24.75;;;14.00;93.80;;;;;;5104729;28;20512;-69
2022/03/28 10:25:24;;;;;;;57.78;28.10;;;14.00;93.80;;;;;;5107126;28;20056;-69
2022/03/28 10:27:52;;;;;;;56.42;28.30;;;14.20;93.50;;;;;;5106939;28;20059;-70
2022/03/28 10:30:27;;;;;;;59.35;27.83;;;14.30;93.50;;;;;;5106969;28;20082;-70
2022/03/28 10:33:20;;;;;;;56.63;28.10;;;14.30;93.50;;;;;;5106374;28;20036;-70
2022/03/28 10:36:00;;;;;;;50.75;25.92;;;14.40;93.30;;;;;;5101985;28;20434;-70
2022/03/28 10:38:27;;;;;;;52.38;25.33;;;14.40;93.10;;;;;;5106045;28;20032;-70
2022/03/28 10:41:03;;;;;;;45.22;24.45;;;14.40;93.10;;;;;;5107317;28;20709;-71
2022/03/28 10:43:31;;;;;;;44.33;24.35;;;14.40;93.10;;;;;;5106662;28;20468;-69
2022/03/28 10:46:01;;;;;;;48.47;26.20;;;14.40;93.50;;;;;;5106994;28;20053;-70
2022/03/28 10:48:42;;;;;;;50.40;26.23;;;14.60;92.90;;;;;;5106418;28;20134;-70
2022/03/28 10:51:11;;;;;;;51.72;26.38;;;14.70;92.30;;;;;;5106777;28;20024;-69
2022/03/28 10:53:42;;;;;;;47.45;25.70;;;14.70;92.10;;;;;;5103451;28;20035;-69
2022/03/28 10:56:12;;;;;;;49.70;25.83;;;14.80;92.40;;;;;;5105898;28;20115;-68
2022/03/28 10:58:49;;;;;;;49.17;26.98;;;14.90;92.00;;;;;;5106011;28;20024;-70
2022/03/28 11:01:18;;;;;;;44.75;24.50;;;14.80;92.10;;;;;;5106909;28;20057;-70
2022/03/28 11:03:52;;;;;;;47.15;25.70;;;14.80;92.10;;;;;;5106052;28;20032;-70
2022/03/28 11:06:20;;;;;;;45.08;24.50;;;14.90;92.00;;;;;;5104917;28;20504;-70
2022/03/28 11:08:59;;;;;;;44.60;23.33;;;14.90;91.80;;;;;;5105824;28;20394;-69
2022/03/28 11:11:32;;;;;;;49.53;26.02;;;14.90;91.90;;;;;;5104985;28;20039;-69
2022/03/28 11:14:09;;;;;;;45.78;25.88;;;15.00;91.90;;;;;;5105168;28;20357;-69
2022/03/28 11:16:39;;;;;;;45.50;25.50;;;15.00;91.50;;;;;;5106030;28;20119;-69
2022/03/28 11:19:25;;;;;;;48.42;25.52;;;15.00;91.90;;;;;;5106014;28;20024;-69
2022/03/28 11:22:10;;;;;;;44.97;24.73;;;15.10;91.50;;;;;;5104561;28;20039;-69
2022/03/28 11:24:58;;;;;;;46.55;24.95;;;15.10;91.70;;;;;;5089923;28;20093;-69
2022/03/28 11:27:36;;;;;;;42.83;24.55;;;15.20;91.60;;;;;;5045416;28;20474;-69
2022/03/28 11:30:11;;;;;;;51.60;25.70;;;15.20;91.40;;;;;;5051825;28;20041;-69
2022/03/28 11:32:38;;;;;;;52.20;25.23;;;15.20;91.40;;;;;;5051813;28;20033;-70
2022/03/28 11:35:06;;;;;;;46.38;25.45;;;15.20;91.40;;;;;;5051472;28;20033;-69
2022/03/28 11:37:32;;;;;;;47.55;24.95;;;15.30;91.40;;;;;;5051655;28;20021;-70
2022/03/28 11:40:03;;;;;;;49.40;25.52;;;15.30;91.30;;;;;;5051655;28;20036;-70
2022/03/28 11:42:34;;;;;;;46.28;25.42;;;15.30;91.70;;;;;;5052037;28;20036;-70
2022/03/28 11:45:11;;;;;;;47.72;24.45;;;15.40;91.00;;;;;;5051552;28;20029;-68
2022/03/28 11:47:39;;;;;;;44.00;25.02;;;15.50;90.90;;;;;;5052339;28;20423;-69
2022/03/28 11:50:08;;;;;;;43.28;25.45;;;15.50;91.50;;;;;;5051302;28;20032;-70
2022/03/28 11:52:35;;;;;;;45.92;26.33;;;15.50;91.10;;;;;;5051356;28;20021;-70
2022/03/28 11:55:01;;;;;;;49.50;26.17;;;15.50;91.00;;;;;;5050859;28;20116;-69
2022/03/28 12:00:22;;;;;;;43.40;24.05;;;15.60;90.70;;;;;;5052053;28;20112;-69
2022/03/28 12:02:49;;;;;;;48.45;26.25;;;15.50;90.80;;;;;;5051343;28;20033;-69
2022/03/28 12:05:46;;;;;;;46.83;25.70;;;15.60;90.50;;;;;;5044999;28;20030;-70
2022/03/28 12:08:13;;;;;;;45.95;25.83;;;15.70;90.60;;;;;;5030009;28;20474;-71
2022/03/28 12:10:58;;;;;;;45.20;25.17;;;15.60;90.30;;;;;;5031345;28;20037;-71
2022/03/28 12:13:25;;;;;;;42.33;24.15;;;15.60;90.50;;;;;;5031154;28;20025;-69
2022/03/28 12:15:53;;;;;;;49.83;26.58;;;15.60;90.80;;;;;;5029867;28;20033;-70
2022/03/28 12:18:20;;;;;;;49.40;26.47;;;15.60;90.50;;;;;;5031038;28;20116;-71
2022/03/28 12:20:49;;;;;;;48.63;25.60;;;15.60;90.40;;;;;;5031372;28;20029;-69
2022/03/28 12:23:17;;;;;;;46.65;24.30;;;15.70;90.60;;;;;;5030482;28;20425;-70
2022/03/28 12:25:51;;;;;;;43.97;23.40;;;15.80;90.20;;;;;;5049624;28;20029;-69
2022/03/28 12:28:35;;;;;;;46.65;23.95;;;15.90;90.20;;;;;;5050589;28;20501;-69
2022/03/28 12:31:03;;;;;;;43.63;22.88;;;15.90;90.00;;;;;;5050884;28;20029;-70
2022/03/28 12:33:34;;;;;;;46.33;23.48;;;16.00;89.60;;;;;;5050638;28;20052;-70
2022/03/28 12:36:03;;;;;;;46.17;23.83;;;16.00;89.90;;;;;;5049710;28;20025;-70
2022/03/28 12:38:35;;;;;;;45.53;24.88;;;16.00;89.00;;;;;;5050018;28;20102;-70
2022/03/28 12:41:22;;;;;;;43.22;22.67;;;16.00;89.50;;;;;;5050831;28;20115;-70
2022/03/28 12:43:52;;;;;;;45.92;23.73;;;16.10;89.20;;;;;;5050337;28;20378;-70
2022/03/28 12:46:18;;;;;;;49.03;24.48;;;16.20;88.80;;;;;;5050434;28;20375;-69
2022/03/28 12:48:52;;;;;;;46.35;23.65;;;16.20;88.50;;;;;;5050475;28;20047;-69
2022/03/28 12:51:40;;;;;;;44.15;24.58;;;16.30;88.40;;;;;;5050756;28;20031;-70
2022/03/28 12:54:07;;;;;;;44.33;23.73;;;16.30;87.80;;;;;;5049758;28;20501;-69
2022/03/28 12:56:57;;;;;;;48.33;24.20;;;16.40;88.00;;;;;;5050301;28;20025;-71
2022/03/28 12:59:26;;;;;;;51.33;24.92;;;16.30;88.00;;;;;;5050135;28;20048;-70
2022/03/28 13:02:04;;;;;;;45.83;24.38;;;16.30;87.50;;;;;;5050244;28;20061;-70
2022/03/28 13:04:30;;;;;;;42.63;22.80;;;16.30;87.50;;;;;;5050357;28;20039;-71
2022/03/28 13:07:01;;;;;;;45.92;23.42;;;16.30;87.40;;;;;;5049849;28;20032;-71
2022/03/28 13:09:27;;;;;;;42.42;23.25;;;16.30;87.00;;;;;;5049438;28;20032;-70
2022/03/28 13:11:53;;;;;;;45.15;23.80;;;16.30;87.40;;;;;;5049824;28;20053;-70
2022/03/28 13:14:28;;;;;;;39.08;22.02;;;16.20;87.50;;;;;;5050168;28;20442;-69
2022/03/28 13:17:20;;;;;;;40.40;22.73;;;16.20;87.80;;;;;;5049851;28;20021;-71
2022/03/28 13:19:57;;;;;;;44.53;23.05;;;16.30;86.80;;;;;;5049862;28;20137;-70
2022/03/28 13:22:29;;;;;;;43.05;22.70;;;16.40;87.70;;;;;;5049988;28;20174;-71
2022/03/28 13:25:20;;;;;;;42.75;23.65;;;16.40;86.70;;;;;;5048044;28;20044;-71
2022/03/28 13:28:05;;;;;;;48.70;24.02;;;16.50;86.30;;;;;;5034944;28;20091;-70
2022/03/28 13:30:32;;;;;;;46.85;24.58;;;16.50;85.70;;;;;;5025286;28;20056;-71
2022/03/28 13:32:59;;;;;;;42.83;22.90;;;16.40;86.00;;;;;;5010255;28;20022;-71
2022/03/28 13:35:26;;;;;;;45.35;24.20;;;16.40;86.40;;;;;;5010184;28;20022;-70
2022/03/28 13:38:01;;;;;;;44.63;22.98;;;16.40;86.20;;;;;;5009665;28;20088;-70
2022/03/28 13:40:28;;;;;;;47.00;23.27;;;16.50;86.20;;;;;;5009913;28;20483;-70
2022/03/28 13:42:55;;;;;;;43.42;22.85;;;16.50;86.10;;;;;;5009698;28;20353;-70
2022/03/28 13:45:21;;;;;;;43.10;22.98;;;16.50;85.90;;;;;;5020968;28;20033;-70
2022/03/28 13:47:47;;;;;;;44.15;22.75;;;16.60;85.80;;;;;;5047787;28;20482;-69
2022/03/28 13:50:13;;;;;;;43.80;22.90;;;16.60;84.70;;;;;;5049455;28;20055;-69
2022/03/28 13:52:39;;;;;;;48.75;23.27;;;16.70;84.90;;;;;;5049454;28;20037;-69
2022/03/28 13:55:06;;;;;;;41.75;22.23;;;16.70;84.30;;;;;;5048714;28;20024;-70
2022/03/28 13:57:32;;;;;;;41.67;22.70;;;16.60;84.50;;;;;;5049390;28;20567;-70
2022/03/28 13:59:58;;;;;;;40.95;22.42;;;16.60;84.70;;;;;;5049189;28;20071;-71
2022/03/28 14:02:24;;;;;;;42.05;22.60;;;16.50;85.00;;;;;;5049452;28;20040;-71
2022/03/28 14:04:50;;;;;;;43.00;21.67;;;16.60;84.70;;;;;;5049397;28;20048;-70
2022/03/28 14:07:16;;;;;;;41.58;22.45;;;16.70;83.90;;;;;;5049123;28;20030;-69
2022/03/28 14:09:42;;;;;;;43.28;22.55;;;16.70;84.10;;;;;;5048519;28;20120;-69
2022/03/28 14:12:08;;;;;;;43.05;22.52;;;16.70;84.10;;;;;;5047854;28;20032;-70
2022/03/28 14:14:35;;;;;;;43.72;22.42;;;16.60;83.80;;;;;;5049358;28;20028;-70
2022/03/28 14:17:02;;;;;;;39.03;21.48;;;16.70;84.20;;;;;;5049016;28;20369;-69
2022/03/28 14:19:29;;;;;;;37.65;21.40;;;16.80;82.80;;;;;;5049215;28;20071;-70
2022/03/28 14:21:56;;;;;;;42.03;22.23;;;16.80;82.70;;;;;;5046357;22;20048;-70
2022/03/28 14:24:22;;;;;;;40.88;21.60;;;16.70;83.30;;;;;;5028358;28;20029;-70
2022/03/28 14:26:48;;;;;;;38.17;21.02;;;16.80;82.60;;;;;;5029799;28;20032;-70
2022/03/28 14:29:14;;;;;;;43.90;21.45;;;16.80;82.30;;;;;;5029451;28;20040;-70
2022/03/28 14:31:40;;;;;;;40.35;22.00;;;16.80;81.40;;;;;;5029560;28;20033;-70
2022/03/28 14:34:06;;;;;;;38.13;20.85;;;16.80;81.70;;;;;;5028734;28;20033;-70
2022/03/28 14:36:32;;;;;;;37.40;20.23;;;16.90;81.30;;;;;;5029385;28;20135;-70
2022/03/28 14:38:58;;;;;;;41.50;21.90;;;17.00;81.20;;;;;;5028952;28;20030;-70
2022/03/28 14:41:24;;;;;;;37.17;20.60;;;17.10;80.80;;;;;;5028731;28;20029;-71
2022/03/28 14:43:50;;;;;;;35.72;21.30;;;17.10;80.70;;;;;;5029226;28;20034;-70
2022/03/28 14:49:00;;;;;;;41.80;22.88;;;17.10;81.00;;;;;;5027653;28;20034;-74
2022/03/28 14:51:26;;;;;;;38.97;21.10;;;17.30;80.20;;;;;;5028817;28;20501;-72
2022/03/28 14:53:53;;;;;;;35.38;20.67;;;17.40;80.70;;;;;;5029018;28;20057;-71
2022/03/28 14:56:21;;;;;;;38.17;20.40;;;17.50;80.60;;;;;;5028702;28;20033;-72
2022/03/28 14:58:49;;;;;;;40.20;22.23;;;17.60;79.80;;;;;;5029624;28;20036;-75
2022/03/28 15:01:15;;;;;;;36.97;21.50;;;17.50;90.40;;;;;;5033660;28;20049;-77
2022/03/28 15:03:41;;;;;;;41.40;22.17;;;17.50;81.90;;;;;;5034346;28;20481;-77
2022/03/28 15:06:07;;;;;;;40.60;22.20;;;17.30;86.50;;;;;;5033601;28;20103;-76
2022/03/28 15:08:33;;;;;;;41.13;21.40;;;17.20;85.10;;;;;;5032214;28;20053;-76
2022/03/28 15:10:59;;;;;;;38.75;22.10;;;17.10;83.90;;;;;;5032257;28;20056;-74
2022/03/28 15:13:25;;;;;;;34.78;20.77;;;17.20;83.90;;;;;;5032787;28;20026;-74
2022/03/28 15:15:51;;;;;;;39.90;21.70;;;17.00;84.00;;;;;;5034128;28;20025;-74
2022/03/28 15:18:18;;;;;;;38.47;21.98;;;17.00;87.80;;;;;;5033836;28;20083;-73
2022/03/28 15:20:44;;;;;;;41.03;21.52;;;16.80;86.40;;;;;;5034289;28;20553;-73
2022/03/28 15:23:10;;;;;;;40.00;22.58;;;16.90;85.60;;;;;;5033638;28;20123;-73
2022/03/28 15:25:38;;;;;;;37.47;20.88;;;16.90;85.90;;;;;;5016129;28;20037;-74
2022/03/28 15:28:04;;;;;;;39.30;20.33;;;16.80;86.00;;;;;;5034158;28;20486;-74
2022/03/28 15:30:38;;;;;;;36.90;19.95;;;16.80;84.80;;;;;;5034132;28;20037;-73
2022/03/28 15:33:04;;;;;;;38.95;20.55;;;16.80;86.50;;;;;;5033952;28;20030;-74
2022/03/28 15:35:30;;;;;;;38.92;21.65;;;16.70;86.00;;;;;;5033947;28;20025;-74
2022/03/28 15:37:56;;;;;;;38.00;22.20;;;16.70;90.20;;;;;;5032618;28;20106;-74
2022/03/28 15:40:22;;;;;;;39.72;21.10;;;16.60;91.00;;;;;;5033528;28;20087;-71
2022/03/28 15:42:48;;;;;;;38.47;21.08;;;16.40;89.10;;;;;;5032818;28;20461;-74
2022/03/28 15:45:14;;;;;;;37.25;21.30;;;16.30;89.50;;;;;;5033472;28;20061;-74
2022/03/28 15:47:41;;;;;;;39.13;20.58;;;16.40;86.60;;;;;;5033654;28;20446;-74
2022/03/28 15:50:07;;;;;;;36.63;20.67;;;16.30;85.40;;;;;;5034082;28;20103;-73
2022/03/28 15:52:33;;;;;;;36.80;19.13;;;16.30;85.40;;;;;;5033192;28;20056;-74
2022/03/28 15:54:59;;;;;;;32.13;19.48;;;16.30;87.90;;;;;;5031290;28;20021;-74
2022/03/28 15:57:26;;;;;;;35.90;19.88;;;16.10;87.70;;;;;;5030441;28;20563;-74
2022/03/28 15:59:52;;;;;;;35.65;19.17;;;16.10;85.80;;;;;;5014075;28;20083;-74
2022/03/28 16:02:18;;;;;;;38.05;20.00;;;16.00;86.20;;;;;;5031594;28;20037;-72
2022/03/28 16:04:44;;;;;;;36.05;18.65;;;15.90;86.40;;;;;;5031582;28;20432;-73
2022/03/28 16:07:10;;;;;;;34.80;18.55;;;15.80;86.80;;;;;;5031413;28;20029;-74
2022/03/28 16:09:36;;;;;;;32.80;18.52;;;15.70;87.30;;;;;;5031174;28;20029;-75
2022/03/28 16:12:02;;;;;;;39.15;19.88;;;15.70;87.70;;;;;;5031659;28;20098;-71
2022/03/28 16:14:28;;;;;;;32.45;17.85;;;15.60;87.70;;;;;;5031509;28;20030;-72
2022/03/28 16:16:54;;;;;;;37.67;19.65;;;15.60;89.90;;;;;;5031095;28;20375;-72
2022/03/28 16:19:21;;;;;;;34.95;19.88;;;15.50;90.30;;;;;;5031566;28;20389;-75
2022/03/28 16:21:48;;;;;;;37.20;18.50;;;15.50;92.70;;;;;;5031384;28;20490;-74
2022/03/28 16:24:14;;;;;;;36.60;21.00;;;15.40;88.20;;;;;;5030972;28;20099;-69
2022/03/28 16:26:42;;;;;;;43.42;23.48;;;15.40;88.20;;;;;;5030006;28;20398;-72
2022/03/28 16:29:09;;;;;;;41.58;21.98;;;15.40;88.30;;;;;;5031240;28;20045;-74
2022/03/28 16:31:36;;;;;;;37.97;20.88;;;15.30;88.20;;;;;;5031220;28;20044;-76
2022/03/28 16:34:03;;;;;;;39.83;21.17;;;15.30;88.50;;;;;;5030258;28;20030;-75
2022/03/28 16:36:34;;;;;;;33.03;19.73;;;15.30;88.20;;;;;;5030894;28;20065;-75
2022/03/28 16:39:00;;;;;;;37.67;18.38;;;15.20;88.30;;;;;;5029827;28;20030;-75
2022/03/28 16:41:26;;;;;;;33.33;18.13;;;15.10;87.70;;;;;;5029487;28;20386;-68
2022/03/28 16:43:54;;;;;;;34.25;18.23;;;15.10;89.40;;;;;;5029922;28;20038;-73
2022/03/28 16:46:20;;;;;;;39.65;19.77;;;15.00;90.80;;;;;;5030699;28;20055;-73
2022/03/28 16:48:47;;;;;;;38.25;19.75;;;15.00;91.40;;;;;;5030700;28;20029;-73
2022/03/28 16:51:13;;;;;;;39.13;19.73;;;15.00;90.10;;;;;;5030916;28;20518;-73
2022/03/28 16:53:39;;;;;;;43.45;20.70;;;14.90;91.10;;;;;;5030663;28;20113;-73
2022/03/28 16:56:05;;;;;;;41.00;19.63;;;14.90;90.30;;;;;;5030354;28;20022;-72
2022/03/28 16:58:31;;;;;;;41.47;21.30;;;14.90;90.10;;;;;;5030699;28;20050;-73
2022/03/28 17:00:57;;;;;;;36.50;20.20;;;14.80;90.30;;;;;;5030814;28;20021;-72
2022/03/28 17:03:24;;;;;;;36.83;19.20;;;14.80;90.40;;;;;;5030628;28;20053;-72
2022/03/28 17:05:50;;;;;;;40.38;20.17;;;14.70;90.00;;;;;;5029061;28;20032;-73
2022/03/28 17:08:17;;;;;;;35.90;18.05;;;14.70;90.20;;;;;;5029030;28;20402;-72
2022/03/28 17:10:43;;;;;;;35.53;18.10;;;14.60;90.60;;;;;;5030378;28;20044;-73
2022/03/28 17:13:09;;;;;;;38.22;18.60;;;14.50;92.10;;;;;;5030366;28;20036;-73
2022/03/28 17:15:40;;;;;;;34.30;18.73;;;14.50;91.20;;;;;;5030300;28;20083;-73
2022/03/28 17:18:08;;;;;;;33.50;18.52;;;14.40;91.30;;;;;;5030615;28;20087;-72
2022/03/28 17:20:34;;;;;;;33.55;18.13;;;14.40;92.20;;;;;;5030026;28;20087;-72
2022/03/28 17:23:00;;;;;;;37.58;19.25;;;14.30;91.50;;;;;;5030499;28;20109;-73
2022/03/28 17:25:26;;;;;;;36.25;20.20;;;14.30;91.00;;;;;;5029824;28;20025;-73
2022/03/28 17:27:53;;;;;;;34.90;18.35;;;14.20;92.80;;;;;;5030055;28;20155;-72
2022/03/28 17:30:22;;;;;;;31.02;16.58;;;14.20;92.90;;;;;;5030507;28;20029;-72
2022/03/28 17:32:52;;;;;;;29.38;17.30;;;14.10;93.00;;;;;;5029014;28;20443;-72
2022/03/28 17:35:18;;;;;;;28.58;16.27;;;14.10;93.10;;;;;;5029031;28;20034;-73
2022/03/28 17:37:46;;;;;;;32.90;16.33;;;14.00;93.40;;;;;;5028561;28;20060;-73
2022/03/28 17:40:21;;;;;;;28.67;15.27;;;14.00;93.60;;;;;;5029789;28;20029;-73
2022/03/28 17:42:53;;;;;;;30.40;15.38;;;13.90;93.10;;;;;;5029980;28;20470;-73
2022/03/28 17:45:20;;;;;;;31.35;15.20;;;13.90;91.90;;;;;;5029968;28;20065;-72
2022/03/28 17:47:46;;;;;;;27.00;15.10;;;13.90;91.10;;;;;;5028056;28;20051;-72
2022/03/28 17:50:12;;;;;;;28.38;15.50;;;13.80;92.70;;;;;;5028346;28;20113;-73
2022/03/28 17:52:38;;;;;;;26.27;14.48;;;13.80;94.20;;;;;;5044828;28;20030;-73
2022/03/28 17:55:05;;;;;;;29.25;15.45;;;13.70;93.60;;;;;;5029348;28;20029;-73
2022/03/28 17:57:31;;;;;;;30.38;13.95;;;13.70;93.50;;;;;;5029700;28;20116;-73
2022/03/28 17:59:58;;;;;;;30.00;14.60;;;13.60;93.10;;;;;;5028223;28;20124;-73
2022/03/28 18:02:24;;;;;;;25.73;13.27;;;13.60;92.40;;;;;;5028460;28;20044;-72
2022/03/28 18:04:50;;;;;;;24.98;12.52;;;13.60;92.00;;;;;;5029729;28;20124;-72
2022/03/28 18:07:16;;;;;;;25.90;13.02;;;13.60;91.80;;;;;;5029298;28;20115;-73
2022/03/28 18:09:43;;;;;;;25.45;12.13;;;13.60;91.70;;;;;;5029411;28;20064;-69
2022/03/28 18:12:09;;;;;;;24.38;11.85;;;13.50;92.50;;;;;;5029605;28;20029;-70
2022/03/28 18:14:35;;;;;;;22.50;11.50;;;13.60;89.40;;;;;;5029402;28;20037;-72
2022/03/28 18:17:02;;;;;;;21.38;11.45;;;13.60;88.70;;;;;;5029142;28;20108;-74
2022/03/28 18:19:28;;;;;;;21.90;10.57;;;13.70;88.50;;;;;;5029099;28;20040;-73
2022/03/28 18:21:53;;;;;;;20.33;11.70;;;13.70;88.10;;;;;;5028853;28;20510;-72
2022/03/28 18:24:20;;;;;;;27.55;13.82;;;13.80;87.80;;;;;;5028962;28;20033;-70
2022/03/28 18:26:46;;;;;;;27.58;13.32;;;13.80;87.10;;;;;;5027773;28;20484;-70
2022/03/28 18:29:13;;;;;;;26.90;14.63;;;13.80;87.10;;;;;;5029036;28;20340;-71
2022/03/28 18:31:42;;;;;;;28.63;14.35;;;13.80;87.00;;;;;;5027990;28;20041;-70
2022/03/28 18:34:08;;;;;;;24.98;12.38;;;13.90;86.70;;;;;;5031826;28;20034;-70
2022/03/28 18:36:35;;;;;;;26.67;12.48;;;13.90;86.80;;;;;;5031582;28;20037;-70
2022/03/28 18:39:01;;;;;;;30.60;14.27;;;13.90;86.90;;;;;;5033354;28;20022;-71
2022/03/28 18:41:27;;;;;;;25.48;12.65;;;13.80;87.00;;;;;;5032973;28;20041;-70
2022/03/28 18:43:54;;;;;;;24.42;13.07;;;13.80;86.90;;;;;;5033299;28;20035;-73
2022/03/28 18:46:23;;;;;;;23.88;12.75;;;13.90;87.00;;;;;;5031505;28;20040;-70
2022/03/28 18:48:49;;;;;;;22.83;11.13;;;13.90;86.80;;;;;;5032717;28;20127;-73
2022/03/28 18:51:16;;;;;;;28.45;12.73;;;13.80;86.90;;;;;;5032990;28;20033;-74
2022/03/28 18:53:43;;;;;;;25.73;12.52;;;13.80;86.50;;;;;;5032822;28;20025;-70
2022/03/28 18:56:10;;;;;;;25.42;12.38;;;13.80;86.90;;;;;;5032263;28;20041;-70
2022/03/28 18:58:37;;;;;;;24.33;11.43;;;13.80;87.00;;;;;;5032553;28;20025;-71
2022/03/28 19:01:04;;;;;;;29.98;11.45;;;13.80;86.90;;;;;;5032468;28;20026;-70
2022/03/28 19:03:30;;;;;;;23.75;10.73;;;13.80;87.00;;;;;;5032530;28;20400;-73
2022/03/28 19:05:56;;;;;;;19.75;10.70;;;13.70;87.00;;;;;;5014633;28;20163;-73
2022/03/28 19:08:22;;;;;;;23.45;11.07;;;13.70;87.20;;;;;;5030931;28;20025;-74
2022/03/28 19:10:48;;;;;;;22.38;11.02;;;13.70;87.90;;;;;;5032006;28;20040;-72
2022/03/28 19:13:15;;;;;;;27.17;11.40;;;13.70;87.40;;;;;;5030823;28;20412;-71
2022/03/28 19:15:42;;;;;;;25.98;11.18;;;13.70;87.10;;;;;;5032376;28;20040;-71
2022/03/28 19:18:08;;;;;;;29.13;11.75;;;13.70;87.20;;;;;;5032027;28;20056;-70
2022/03/28 19:20:34;;;;;;;24.38;10.70;;;13.70;87.40;;;;;;5030672;28;20029;-70
2022/03/28 19:23:02;;;;;;;26.77;11.85;;;13.60;87.50;;;;;;5032119;28;20044;-73
2022/03/28 19:25:31;;;;;;;21.77;10.80;;;13.60;87.50;;;;;;5032018;28;20124;-70
2022/03/28 19:27:57;;;;;;;26.95;12.18;;;13.60;87.70;;;;;;5032012;28;20242;-71
2022/03/28 19:30:23;;;;;;;25.73;11.30;;;13.60;87.80;;;;;;5032120;28;20030;-71
2022/03/28 19:32:49;;;;;;;23.63;11.50;;;13.60;87.80;;;;;;5032141;28;20116;-70
2022/03/28 19:35:15;;;;;;;24.75;11.23;;;13.50;87.90;;;;;;5032075;28;20029;-71
2022/03/28 19:37:41;;;;;;;26.75;11.52;;;13.50;88.00;;;;;;5032161;28;20029;-69
2022/03/28 19:40:09;;;;;;;26.38;10.88;;;13.50;88.10;;;;;;5031962;28;20108;-72
2022/03/28 19:42:35;;;;;;;33.75;11.65;;;13.50;88.30;;;;;;5047571;28;20446;-70
2022/03/28 19:45:02;;;;;;;32.10;12.60;;;13.50;89.40;;;;;;5028837;28;20544;-70
2022/03/28 19:47:28;;;;;;;28.92;11.60;;;13.50;89.20;;;;;;5030890;28;20029;-70
2022/03/28 19:49:54;;;;;;;32.70;12.52;;;13.50;89.40;;;;;;5032851;28;20026;-71
2022/03/28 19:52:21;;;;;;;25.98;11.70;;;13.60;89.50;;;;;;5032975;28;20072;-70
2022/03/28 19:54:50;;;;;;;25.30;11.43;;;13.50;88.70;;;;;;5033110;28;20390;-71
2022/03/28 19:57:17;;;;;;;23.85;10.57;;;13.50;88.60;;;;;;5032479;28;20083;-72
2022/03/28 19:59:44;;;;;;;27.70;10.52;;;13.50;89.20;;;;;;5033005;28;20036;-71
2022/03/28 20:02:13;;;;;;;22.23;9.35;;;13.50;87.90;;;;;;5030621;28;20052;-72
2022/03/28 20:04:40;;;;;;;21.10;9.47;;;13.40;88.00;;;;;;5032027;28;20026;-71
2022/03/28 20:07:07;;;;;;;22.58;9.80;;;13.40;87.80;;;;;;5030490;28;20029;-72
2022/03/28 20:09:34;;;;;;;24.83;9.88;;;13.40;87.80;;;;;;5031989;28;20157;-71
2022/03/28 20:12:00;;;;;;;26.80;10.95;;;13.40;87.90;;;;;;5032032;28;20033;-71
2022/03/28 20:14:26;;;;;;;24.17;9.30;;;13.30;88.10;;;;;;5032415;28;20052;-72
2022/03/28 20:16:55;;;;;;;21.67;9.80;;;13.30;88.40;;;;;;5032503;28;20056;-71
2022/03/28 20:19:21;;;;;;;23.27;9.48;;;13.30;88.40;;;;;;5032274;28;20029;-70
2022/03/28 20:21:47;;;;;;;22.35;9.25;;;13.30;88.50;;;;;;5033277;22;20049;-72
2022/03/28 20:24:13;;;;;;;31.35;13.38;;;13.20;88.70;;;;;;5012986;28;20030;-72
2022/03/28 20:26:39;;;;;;;27.15;10.68;;;13.20;88.80;;;;;;5012538;28;20393;-71
2022/03/28 20:29:05;;;;;;;22.80;10.13;;;13.20;88.90;;;;;;5012929;28;20506;-72
2022/03/28 20:31:32;;;;;;;26.55;10.40;;;13.10;89.10;;;;;;5012677;28;20065;-71
2022/03/28 20:33:58;;;;;;;21.40;10.02;;;13.10;89.30;;;;;;5012353;28;20410;-72
2022/03/28 20:36:25;;;;;;;20.63;9.77;;;13.10;89.60;;;;;;5012309;28;20505;-72
2022/03/28 20:38:51;;;;;;;24.38;10.43;;;13.00;89.80;;;;;;5012423;28;20040;-72
2022/03/28 20:41:17;;;;;;;22.58;10.38;;;13.00;89.80;;;;;;5011078;28;20122;-72
2022/03/28 20:43:43;;;;;;;26.48;10.77;;;13.00;89.80;;;;;;5012279;28;20094;-71
2022/03/28 20:46:09;;;;;;;26.60;10.45;;;13.00;89.80;;;;;;5012142;28;20033;-72
2022/03/28 20:48:35;;;;;;;28.17;9.98;;;13.00;89.90;;;;;;5012170;28;20113;-72
2022/03/28 20:51:02;;;;;;;21.48;9.98;;;13.00;89.80;;;;;;5012360;28;20084;-72
2022/03/28 20:53:29;;;;;;;24.35;9.38;;;13.00;89.70;;;;;;5011974;28;20032;-72
2022/03/28 20:55:56;;;;;;;22.60;9.68;;;13.00;89.80;;;;;;5011076;28;20040;-71
2022/03/28 20:58:22;;;;;;;22.77;9.07;;;12.90;89.40;;;;;;5012141;28;20103;-72
2022/03/28 21:00:48;;;;;;;21.70;9.02;;;12.90;89.10;;;;;;5012189;28;20486;-72
2022/03/28 21:03:15;;;;;;;24.67;8.98;;;12.90;89.10;;;;;;5011999;28;20072;-72
2022/03/28 21:05:44;;;;;;;21.98;8.60;;;12.90;89.10;;;;;;5011931;28;20041;-72
2022/03/28 21:08:13;;;;;;;25.00;10.00;;;12.90;89.10;;;;;;5011952;28;20030;-72
2022/03/28 21:10:39;;;;;;;21.92;8.98;;;12.80;89.30;;;;;;5012039;28;20104;-72
2022/03/28 21:13:06;;;;;;;21.65;9.50;;;12.80;89.60;;;;;;5010568;28;20038;-72
2022/03/28 21:15:32;;;;;;;21.38;8.75;;;12.80;89.80;;;;;;5011686;28;20026;-72
2022/03/28 21:17:59;;;;;;;23.55;9.25;;;12.80;89.90;;;;;;5011641;28;20026;-72
2022/03/28 21:20:26;;;;;;;26.08;10.10;;;12.70;90.00;;;;;;5011744;28;20026;-72
2022/03/28 21:22:57;;;;;;;28.90;10.02;;;12.60;90.10;;;;;;5011602;28;20164;-72
2022/03/28 21:25:23;;;;;;;24.83;9.40;;;12.60;90.20;;;;;;5011729;28;20561;-72
2022/03/28 21:27:50;;;;;;;24.30;9.60;;;12.60;90.30;;;;;;5010339;28;20037;-72
2022/03/28 21:30:16;;;;;;;27.42;9.57;;;12.50;90.40;;;;;;5011656;28;20164;-72
2022/03/28 21:32:42;;;;;;;17.73;8.57;;;12.60;90.50;;;;;;5011476;28;20514;-72
2022/03/28 21:35:08;;;;;;;23.73;9.85;;;12.50;90.50;;;;;;5011548;28;20030;-72
2022/03/28 21:37:36;;;;;;;27.05;10.93;;;12.50;90.50;;;;;;5010243;28;20030;-71
2022/03/28 21:40:08;;;;;;;18.60;9.23;;;12.50;90.50;;;;;;5011421;28;20022;-71
2022/03/28 21:42:34;;;;;;;19.85;9.23;;;12.50;90.60;;;;;;5011514;28;20327;-71
2022/03/28 21:45:00;;;;;;;21.02;9.77;;;12.50;90.50;;;;;;5011356;28;20033;-72
2022/03/28 21:47:26;;;;;;;20.25;9.27;;;12.50;90.50;;;;;;5010051;28;20022;-72
2022/03/28 21:49:56;;;;;;;24.47;10.10;;;12.50;90.40;;;;;;5011723;28;20660;-72
2022/03/28 21:52:23;;;;;;;26.20;10.18;;;12.50;90.40;;;;;;5011111;28;20034;-72
2022/03/28 21:54:49;;;;;;;23.55;9.23;;;12.50;90.40;;;;;;5011404;28;20048;-72
2022/03/28 21:57:15;;;;;;;20.30;9.40;;;12.50;90.50;;;;;;5011343;28;20494;-71
2022/03/28 21:59:41;;;;;;;22.98;9.55;;;12.50;90.40;;;;;;5011296;28;20026;-72
2022/03/28 22:02:07;;;;;;;21.40;9.60;;;12.50;90.40;;;;;;5010060;28;20796;-72
2022/03/28 22:04:33;;;;;;;21.42;9.93;;;12.50;90.40;;;;;;5010083;28;20486;-72
2022/03/28 22:06:59;;;;;;;23.33;9.68;;;12.50;90.40;;;;;;5011016;28;20042;-72
2022/03/28 22:09:25;;;;;;;24.48;10.35;;;12.60;90.20;;;;;;5011366;28;20411;-72
2022/03/28 22:11:52;;;;;;;23.23;9.80;;;12.50;90.10;;;;;;5011108;28;20029;-71
2022/03/28 22:14:19;;;;;;;19.00;9.35;;;12.50;90.30;;;;;;5011178;28;20030;-72
2022/03/28 22:16:47;;;;;;;26.98;10.70;;;12.50;90.40;;;;;;5010844;28;20083;-72
2022/03/28 22:19:13;;;;;;;20.58;9.93;;;12.50;90.40;;;;;;5011153;28;20037;-71
2022/03/28 22:21:39;;;;;;;23.20;10.67;;;12.50;90.40;;;;;;5010852;28;20038;-72
2022/03/28 22:24:06;;;;;;;22.73;10.25;;;12.50;90.40;;;;;;5011061;28;20026;-72
2022/03/28 22:26:32;;;;;;;24.42;10.48;;;12.40;90.40;;;;;;5010977;28;20122;-72
2022/03/28 22:28:57;;;;;;;21.98;9.95;;;12.40;90.50;;;;;;5010965;28;20112;-72
2022/03/28 22:31:23;;;;;;;25.15;10.50;;;12.40;90.50;;;;;;5010798;28;20142;-71
2022/03/28 22:33:49;;;;;;;26.05;10.80;;;12.40;90.60;;;;;;5010896;28;20463;-71
2022/03/28 22:36:15;;;;;;;24.27;10.80;;;12.30;90.60;;;;;;5010812;28;20091;-71
2022/03/28 22:38:41;;;;;;;26.43;10.30;;;12.30;90.70;;;;;;5010859;28;20065;-72
2022/03/28 22:41:07;;;;;;;23.10;10.20;;;12.20;90.70;;;;;;5010957;28;20105;-72
2022/03/28 22:43:34;;;;;;;19.38;10.35;;;12.20;90.80;;;;;;5010648;28;20029;-71
2022/03/28 22:46:00;;;;;;;24.00;10.40;;;12.20;90.70;;;;;;5010716;28;20026;-71
2022/03/28 22:48:26;;;;;;;21.73;10.30;;;12.10;90.80;;;;;;5010601;28;20044;-72
2022/03/28 22:50:52;;;;;;;23.23;10.80;;;12.10;90.80;;;;;;5009714;28;20038;-70